createdAt,value
2022-12-19T00:00:49.177Z,51.94
2022-12-19T00:03:17.661Z,52.15
2022-12-19T00:05:46.181Z,51.51
2022-12-19T00:08:19.492Z,52.24
2022-12-19T00:10:56.512Z,52.02
2022-12-19T00:13:25.879Z,51.46
2022-12-19T00:15:55.262Z,51.68
2022-12-19T00:18:23.710Z,52.05
2022-12-19T00:21:00.227Z,52.14
2022-12-19T00:23:30.637Z,52.13
2022-12-19T00:26:09.755Z,51.63
2022-12-19T00:28:38.393Z,52.30
2022-12-19T00:31:07.778Z,51.99
2022-12-19T00:33:36.268Z,51.18
2022-12-19T00:36:10.807Z,51.24
2022-12-19T00:38:39.283Z,51.73
2022-12-19T00:41:13.579Z,51.58
2022-12-19T00:43:44.019Z,52.01
2022-12-19T00:46:15.080Z,52.75
2022-12-19T00:48:43.633Z,52.16
2022-12-19T00:51:17.586Z,51.59
2022-12-19T00:53:48.302Z,51.97
2022-12-19T00:56:19.836Z,51.76
2022-12-19T00:58:49.219Z,52.12
2022-12-19T01:01:21.759Z,52.33
2022-12-19T01:04:26.031Z,51.90
2022-12-19T01:06:38.905Z,52.44
2022-12-19T01:09:07.613Z,52.49
2022-12-19T01:11:54.612Z,51.75
2022-12-19T01:14:23.725Z,51.75
2022-12-19T01:16:52.156Z,51.41
2022-12-19T01:19:20.521Z,52.15
2022-12-19T01:21:48.879Z,52.23
2022-12-19T01:24:19.129Z,52.07
2022-12-19T01:26:47.738Z,51.70
2022-12-19T01:29:16.409Z,51.55
2022-12-19T01:31:44.943Z,52.09
2022-12-19T01:34:13.678Z,52.13
2022-12-19T01:36:42.073Z,52.05
2022-12-19T01:39:10.524Z,51.98
2022-12-19T01:41:38.995Z,52.01
2022-12-19T01:44:08.717Z,51.79
2022-12-19T01:46:39.210Z,51.78
2022-12-19T01:49:15.371Z,52.12
2022-12-19T01:51:49.268Z,52.35
2022-12-19T01:54:19.824Z,51.84
2022-12-19T01:56:51.805Z,51.45
2022-12-19T01:59:26.017Z,51.97
2022-12-19T02:02:00.170Z,52.01
2022-12-19T02:04:32.746Z,52.21
2022-12-19T02:07:13.474Z,52.12
2022-12-19T02:09:46.946Z,51.85
2022-12-19T02:12:15.456Z,51.52
2022-12-19T02:14:43.933Z,51.94
2022-12-19T02:17:25.732Z,51.94
2022-12-19T02:20:22.832Z,51.99
2022-12-19T02:23:17.431Z,51.79
2022-12-19T02:26:14.420Z,51.95
2022-12-19T02:29:09.117Z,51.56
2022-12-19T02:31:50.954Z,51.70
2022-12-19T02:34:29.341Z,52.26
2022-12-19T02:37:29.596Z,52.13
2022-12-19T02:40:07.416Z,52.59
2022-12-19T02:42:40.276Z,51.95
2022-12-19T02:45:11.580Z,52.29
2022-12-19T02:47:44.932Z,52.94
2022-12-19T02:50:13.555Z,52.87
2022-12-19T02:52:45.045Z,52.39
2022-12-19T02:55:19.957Z,52.69
2022-12-19T02:58:05.807Z,52.78
2022-12-19T03:00:47.216Z,52.79
2022-12-19T03:03:28.901Z,52.88
2022-12-19T03:06:26.134Z,52.86
2022-12-19T03:08:54.440Z,53.02
2022-12-19T03:11:25.183Z,52.60
2022-12-19T03:13:58.849Z,52.78
2022-12-19T03:16:28.265Z,52.92
2022-12-19T03:18:57.859Z,53.01
2022-12-19T03:21:35.649Z,52.86
2022-12-19T03:24:05.650Z,52.85
2022-12-19T03:26:39.527Z,52.69
2022-12-19T03:29:12.564Z,52.93
2022-12-19T03:31:42.878Z,52.94
2022-12-19T03:34:18.332Z,52.70
2022-12-19T03:36:53.844Z,52.72
2022-12-19T03:39:23.704Z,52.51
2022-12-19T03:42:12.194Z,52.13
2022-12-19T03:44:43.511Z,52.61
2022-12-19T03:47:17.291Z,53.42
2022-12-19T03:49:46.943Z,52.31
2022-12-19T03:52:19.383Z,52.71
2022-12-19T03:55:01.538Z,53.05
2022-12-19T03:57:36.042Z,53.40
2022-12-19T04:00:08.503Z,53.38
2022-12-19T04:02:39.905Z,53.74
2022-12-19T04:05:10.432Z,53.64
2022-12-19T04:07:39.953Z,53.84
2022-12-19T04:10:12.431Z,53.43
2022-12-19T04:12:47.267Z,54.08
2022-12-19T04:15:16.604Z,54.63
2022-12-19T04:17:51.686Z,54.07
2022-12-19T04:20:25.211Z,54.53
2022-12-19T04:23:03.027Z,54.62
2022-12-19T04:25:42.818Z,55.16
2022-12-19T04:28:16.837Z,54.28
2022-12-19T04:30:46.394Z,53.98
2022-12-19T04:33:14.851Z,55.37
2022-12-19T04:35:43.578Z,55.51
2022-12-19T04:38:12.088Z,55.26
2022-12-19T04:40:41.731Z,54.87
2022-12-19T04:43:10.323Z,54.07
2022-12-19T04:45:40.748Z,54.26
2022-12-19T04:48:09.473Z,54.05
2022-12-19T04:50:37.892Z,54.76
2022-12-19T04:53:08.992Z,54.83
2022-12-19T04:55:40.035Z,55.02
2022-12-19T04:58:08.445Z,54.96
2022-12-19T05:00:36.807Z,55.24
2022-12-19T05:03:05.284Z,55.35
2022-12-19T05:05:33.850Z,55.28
2022-12-19T05:08:02.256Z,54.69
2022-12-19T05:10:30.602Z,55.03
2022-12-19T05:12:58.988Z,55.69
2022-12-19T05:15:27.385Z,55.10
2022-12-19T05:17:55.788Z,55.10
2022-12-19T05:20:24.261Z,56.61
2022-12-19T05:22:52.706Z,56.34
2022-12-19T05:25:21.118Z,54.73
2022-12-19T05:27:49.537Z,55.22
2022-12-19T05:30:18.101Z,56.88
2022-12-19T05:32:46.491Z,56.46
2022-12-19T05:35:14.893Z,55.32
2022-12-19T05:37:43.358Z,55.40
2022-12-19T05:40:12.226Z,56.17
2022-12-19T05:42:40.648Z,57.09
2022-12-19T05:45:09.387Z,54.57
2022-12-19T05:47:38.196Z,54.94
2022-12-19T05:50:07.164Z,54.54
2022-12-19T05:52:36.521Z,56.07
2022-12-19T05:55:07.670Z,55.31
2022-12-19T05:57:36.603Z,55.26
2022-12-19T06:00:05.928Z,54.70
2022-12-19T06:02:34.431Z,55.96
2022-12-19T06:05:03.020Z,54.97
2022-12-19T06:07:32.121Z,55.01
2022-12-19T06:10:00.712Z,54.67
2022-12-19T06:12:29.252Z,55.35
2022-12-19T06:14:57.699Z,56.15
2022-12-19T06:17:26.137Z,55.19
2022-12-19T06:19:54.722Z,55.54
2022-12-19T06:22:24.001Z,57.03
2022-12-19T06:24:52.445Z,56.77
2022-12-19T06:27:20.890Z,55.23
2022-12-19T06:29:51.725Z,57.07
2022-12-19T06:32:20.162Z,55.41
2022-12-19T06:35:03.724Z,56.22
2022-12-19T06:37:32.789Z,56.82
2022-12-19T06:40:01.223Z,55.76
2022-12-19T06:42:29.681Z,56.72
2022-12-19T06:44:58.257Z,55.01
2022-12-19T06:47:26.722Z,54.67
2022-12-19T06:49:55.150Z,54.59
2022-12-19T06:52:23.708Z,56.36
2022-12-19T06:54:52.156Z,55.65
2022-12-19T06:57:20.695Z,55.25
2022-12-19T06:59:49.127Z,54.91
2022-12-19T07:02:25.612Z,55.00
2022-12-19T07:05:03.808Z,54.62
2022-12-19T07:07:33.028Z,54.71
2022-12-19T07:10:01.603Z,55.13
2022-12-19T07:12:30.010Z,55.07
2022-12-19T07:14:58.481Z,54.99
2022-12-19T07:17:28.894Z,55.23
2022-12-19T07:19:58.749Z,54.74
2022-12-19T07:22:32.903Z,55.06
2022-12-19T07:25:03.452Z,54.89
2022-12-19T07:27:35.945Z,56.25
2022-12-19T07:30:06.177Z,55.65
2022-12-19T07:32:34.554Z,56.21
2022-12-19T07:35:03.674Z,55.12
2022-12-19T07:37:32.033Z,54.71
2022-12-19T07:40:00.546Z,55.19
2022-12-19T07:42:32.473Z,54.71
2022-12-19T07:45:01.602Z,54.22
2022-12-19T07:47:30.155Z,54.55
2022-12-19T07:49:58.578Z,54.94
2022-12-19T07:52:27.863Z,54.72
2022-12-19T07:54:56.291Z,55.62
2022-12-19T07:57:24.868Z,55.44
2022-12-19T07:59:53.346Z,54.37
2022-12-19T08:02:21.903Z,54.67
2022-12-19T08:04:51.010Z,54.98
2022-12-19T08:07:19.495Z,54.10
2022-12-19T08:09:49.176Z,53.41
2022-12-19T08:12:17.831Z,53.25
2022-12-19T08:14:46.355Z,53.11
2022-12-19T08:17:22.338Z,53.62
2022-12-19T08:19:50.944Z,53.91
2022-12-19T08:22:20.400Z,53.61
2022-12-19T08:24:48.887Z,53.88
2022-12-19T08:27:17.480Z,53.49
2022-12-19T08:29:45.982Z,53.26
2022-12-19T08:32:20.435Z,53.72
2022-12-19T08:34:50.290Z,53.11
2022-12-19T08:37:18.784Z,52.48
2022-12-19T08:39:47.243Z,52.06
2022-12-19T08:42:15.766Z,52.13
2022-12-19T08:44:44.262Z,52.62
2022-12-19T08:47:12.731Z,52.91
2022-12-19T08:49:41.251Z,54.33
2022-12-19T08:52:09.736Z,53.60
2022-12-19T08:54:38.408Z,53.55
2022-12-19T08:57:06.928Z,53.20
2022-12-19T08:59:35.535Z,53.22
2022-12-19T09:02:06.304Z,53.29
2022-12-19T09:05:59.607Z,53.37
2022-12-19T09:07:23.606Z,53.71
2022-12-19T09:09:52.042Z,53.17
2022-12-19T09:12:20.671Z,52.71
2022-12-19T09:14:49.121Z,52.03
2022-12-19T09:17:17.616Z,53.00
2022-12-19T09:19:48.136Z,52.87
2022-12-19T09:22:16.967Z,53.13
2022-12-19T09:24:45.858Z,53.28
2022-12-19T09:27:14.352Z,52.86
2022-12-19T09:29:43.975Z,52.98
2022-12-19T09:32:13.519Z,54.04
2022-12-19T09:34:42.057Z,53.35
2022-12-19T09:37:16.292Z,54.06
2022-12-19T09:39:47.110Z,52.72
2022-12-19T09:42:39.386Z,52.73
2022-12-19T09:45:32.653Z,52.48
2022-12-19T09:48:02.912Z,52.51
2022-12-19T09:51:18.857Z,52.63
2022-12-19T09:54:06.135Z,52.53
2022-12-19T09:56:46.574Z,52.54
2022-12-19T09:59:41.203Z,52.15
2022-12-19T10:02:29.225Z,51.75
2022-12-19T10:05:33.364Z,51.85
2022-12-19T10:08:10.334Z,52.11
2022-12-19T10:12:45.022Z,52.24
2022-12-19T10:14:17.232Z,51.71
2022-12-19T10:17:23.636Z,52.01
2022-12-19T10:20:16.296Z,51.29
2022-12-19T10:23:30.077Z,50.96
2022-12-19T10:26:10.003Z,51.04
2022-12-19T10:29:03.075Z,51.39
2022-12-19T10:32:14.733Z,51.28
2022-12-19T10:34:45.932Z,52.05
2022-12-19T10:37:32.730Z,51.74
2022-12-19T10:40:33.115Z,51.22
2022-12-19T10:43:19.077Z,51.30
2022-12-19T10:46:02.722Z,51.26
2022-12-19T10:48:31.718Z,50.82
2022-12-19T10:51:06.155Z,51.30
2022-12-19T10:53:35.148Z,51.48
2022-12-19T10:56:22.155Z,52.11
2022-12-19T10:59:03.388Z,52.22
2022-12-19T11:01:40.514Z,51.99
2022-12-19T11:04:27.727Z,52.44
2022-12-19T11:07:31.180Z,52.47
2022-12-19T11:11:22.562Z,51.94
2022-12-19T11:16:21.295Z,53.12
2022-12-19T11:21:33.331Z,52.31
2022-12-19T11:29:27.535Z,52.42
2022-12-19T11:29:34.916Z,51.88
2022-12-19T11:29:40.990Z,52.55
2022-12-19T11:30:47.279Z,51.87
2022-12-19T11:33:20.174Z,51.89
2022-12-19T11:35:58.875Z,51.58
2022-12-19T11:38:52.883Z,51.58
2022-12-19T11:41:49.096Z,51.09
2022-12-19T11:44:32.447Z,51.02
2022-12-19T11:47:32.352Z,51.24
2022-12-19T11:50:24.740Z,50.75
2022-12-19T11:53:19.441Z,50.87
2022-12-19T11:55:58.274Z,50.95
2022-12-19T11:58:29.618Z,50.87
2022-12-19T12:01:15.573Z,50.41
2022-12-19T12:04:03.508Z,50.12
2022-12-19T12:06:39.912Z,50.19
2022-12-19T12:11:16.908Z,49.96
2022-12-19T12:18:03.630Z,49.66
2022-12-19T12:27:23.341Z,49.94
2022-12-19T12:31:04.067Z,49.90
2022-12-19T12:31:07.301Z,50.11
2022-12-19T12:31:38.590Z,49.49
2022-12-19T12:31:41.879Z,49.74
2022-12-19T12:31:47.568Z,49.33
2022-12-19T12:36:56.009Z,49.66
2022-12-19T12:39:36.463Z,49.36
2022-12-19T12:42:44.097Z,48.89
2022-12-19T12:45:26.208Z,49.29
2022-12-19T12:47:54.711Z,49.38
2022-12-19T12:50:26.251Z,48.85
2022-12-19T12:53:01.537Z,49.25
2022-12-19T12:55:35.148Z,49.18
2022-12-19T12:58:04.201Z,48.63
2022-12-19T13:00:34.590Z,48.61
2022-12-19T13:03:12.775Z,48.62
2022-12-19T13:06:04.642Z,48.09
2022-12-19T13:08:44.933Z,47.92
2022-12-19T13:11:55.411Z,48.28
2022-12-19T13:14:36.048Z,48.31
2022-12-19T13:17:17.660Z,48.11
2022-12-19T13:20:18.742Z,47.65
2022-12-19T13:22:59.223Z,48.06
2022-12-19T13:25:49.730Z,48.10
2022-12-19T13:28:21.202Z,47.86
2022-12-19T13:31:16.643Z,47.87
2022-12-19T13:33:55.828Z,47.69
2022-12-19T13:40:01.728Z,47.45
2022-12-19T13:40:12.306Z,47.20
2022-12-19T13:43:31.019Z,47.18
2022-12-19T13:46:01.261Z,47.12
2022-12-19T13:48:40.200Z,47.37
2022-12-19T13:51:11.619Z,46.80
2022-12-19T13:53:41.929Z,46.79
2022-12-19T13:56:18.545Z,46.78
2022-12-19T13:58:54.733Z,47.11
2022-12-19T14:01:29.286Z,46.50
2022-12-19T14:04:08.122Z,46.59
2022-12-19T14:06:43.560Z,46.55
2022-12-19T14:11:32.927Z,46.25
2022-12-19T14:13:41.422Z,45.89
2022-12-19T14:15:52.220Z,46.22
2022-12-19T14:18:44.475Z,45.90
2022-12-19T14:22:09.946Z,46.11
2022-12-19T14:24:15.475Z,45.98
2022-12-19T14:28:19.306Z,45.63
2022-12-19T14:30:26.730Z,45.96
2022-12-19T14:33:45.213Z,45.39
2022-12-19T14:36:06.919Z,45.54
2022-12-19T14:39:22.991Z,45.52
2022-12-19T14:41:47.581Z,45.47
2022-12-19T14:53:08.568Z,45.52
2022-12-19T14:54:03.495Z,45.36
2022-12-19T14:54:21.239Z,44.57
2022-12-19T14:54:28.466Z,45.28
2022-12-19T14:59:35.552Z,44.85
2022-12-19T15:02:08.097Z,44.86
2022-12-19T15:04:48.887Z,44.92
2022-12-19T15:07:22.052Z,44.57
2022-12-19T15:11:04.817Z,44.61
2022-12-19T15:14:49.588Z,44.39
2022-12-19T15:16:04.100Z,45.63
2022-12-19T15:18:32.529Z,44.53
2022-12-19T15:21:08.050Z,44.63
2022-12-19T15:23:36.549Z,44.26
2022-12-19T15:26:11.381Z,44.32
2022-12-19T15:28:55.471Z,44.35
2022-12-19T15:31:41.787Z,44.82
2022-12-19T15:34:46.607Z,44.54
2022-12-19T15:37:13.541Z,43.95
2022-12-19T15:39:43.548Z,44.81
2022-12-19T15:42:24.896Z,44.34
2022-12-19T15:44:56.356Z,44.26
2022-12-19T15:47:34.284Z,44.28
2022-12-19T15:50:16.441Z,44.12
2022-12-19T15:52:44.958Z,43.71
2022-12-19T15:55:15.863Z,43.84
2022-12-19T15:57:49.340Z,44.58
2022-12-19T16:00:23.409Z,44.06
2022-12-19T16:03:23.165Z,44.71
2022-12-19T16:05:42.778Z,44.37
2022-12-19T16:08:16.743Z,44.58
2022-12-19T16:10:48.616Z,44.50
2022-12-19T16:13:27.035Z,44.55
2022-12-19T16:15:56.327Z,44.58
2022-12-19T16:18:27.379Z,44.81
2022-12-19T16:20:57.365Z,44.51
2022-12-19T16:23:26.639Z,44.74
2022-12-19T16:25:55.696Z,44.74
2022-12-19T16:28:28.852Z,44.14
2022-12-19T16:30:58.855Z,44.39
2022-12-19T16:33:29.571Z,44.49
2022-12-19T16:36:06.937Z,44.12
2022-12-19T16:38:36.652Z,44.21
2022-12-19T16:41:05.148Z,44.00
2022-12-19T16:43:38.322Z,44.26
2022-12-19T16:46:08.701Z,44.22
2022-12-19T16:48:37.231Z,44.13
2022-12-19T16:51:09.771Z,44.57
2022-12-19T16:53:38.229Z,44.54
2022-12-19T16:56:09.428Z,44.31
2022-12-19T16:58:42.998Z,44.70
2022-12-19T17:01:12.781Z,44.35
2022-12-19T17:03:43.572Z,44.14
2022-12-19T17:06:14.502Z,44.24
2022-12-19T17:08:43.922Z,44.64
2022-12-19T17:11:25.998Z,44.62
2022-12-19T17:14:08.443Z,44.75
2022-12-19T17:16:37.464Z,45.02
2022-12-19T17:19:06.097Z,44.84
2022-12-19T17:21:34.609Z,44.74
2022-12-19T17:24:05.691Z,44.57
2022-12-19T17:26:34.200Z,44.36
2022-12-19T17:29:03.711Z,44.70
2022-12-19T17:31:38.166Z,45.22
2022-12-19T17:34:25.959Z,45.18
2022-12-19T17:36:54.965Z,45.01
2022-12-19T17:39:25.737Z,45.44
2022-12-19T17:41:59.049Z,44.53
2022-12-19T17:44:27.477Z,44.34
2022-12-19T17:46:55.950Z,44.58
2022-12-19T17:49:30.185Z,44.58
2022-12-19T17:51:59.942Z,44.77
2022-12-19T17:54:30.602Z,44.44
2022-12-19T17:56:59.272Z,44.74
2022-12-19T17:59:27.800Z,45.19
2022-12-19T18:01:56.951Z,46.24
2022-12-19T18:04:27.939Z,45.97
2022-12-19T18:06:56.394Z,45.16
2022-12-19T18:09:25.270Z,44.93
2022-12-19T18:11:53.791Z,45.26
2022-12-19T18:14:22.332Z,45.17
2022-12-19T18:16:50.853Z,45.24
2022-12-19T18:19:21.214Z,45.35
2022-12-19T18:21:49.738Z,45.06
2022-12-19T18:24:18.111Z,45.32
2022-12-19T18:26:46.833Z,44.93
2022-12-19T18:29:15.250Z,45.15
2022-12-19T18:31:50.416Z,45.19
2022-12-19T18:34:22.723Z,45.37
2022-12-19T18:36:52.055Z,45.25
2022-12-19T18:39:25.932Z,45.03
2022-12-19T18:41:54.963Z,45.03
2022-12-19T18:44:23.465Z,44.95
2022-12-19T18:46:52.991Z,45.02
2022-12-19T18:49:22.828Z,46.18
2022-12-19T18:51:51.282Z,45.37
2022-12-19T18:54:22.431Z,44.84
2022-12-19T18:56:51.925Z,45.18
2022-12-19T18:59:20.434Z,45.78
2022-12-19T19:01:49.960Z,45.97
2022-12-19T19:04:18.645Z,45.88
2022-12-19T19:06:51.680Z,45.95
2022-12-19T19:09:21.834Z,45.61
2022-12-19T19:11:50.301Z,45.53
2022-12-19T19:14:18.707Z,45.69
2022-12-19T19:16:47.213Z,45.64
2022-12-19T19:19:18.362Z,46.21
2022-12-19T19:21:46.917Z,45.96
2022-12-19T19:24:18.771Z,45.49
2022-12-19T19:26:47.158Z,46.13
2022-12-19T19:29:15.724Z,45.94
2022-12-19T19:31:47.577Z,45.95
2022-12-19T19:34:23.260Z,46.48
2022-12-19T19:36:56.132Z,46.52
2022-12-19T19:39:24.975Z,46.67
2022-12-19T19:41:53.765Z,45.35
2022-12-19T19:44:22.199Z,45.49
2022-12-19T19:46:50.747Z,45.69
2022-12-19T19:49:20.718Z,45.43
2022-12-19T19:51:49.125Z,45.94
2022-12-19T19:54:17.653Z,46.35
2022-12-19T19:56:46.025Z,46.70
2022-12-19T19:59:14.501Z,46.00
2022-12-19T20:01:43.246Z,46.50
2022-12-19T20:04:11.878Z,46.41
2022-12-19T20:06:40.428Z,46.19
2022-12-19T20:09:08.998Z,46.71
2022-12-19T20:11:37.489Z,45.94
2022-12-19T20:14:05.972Z,45.63
2022-12-19T20:16:34.696Z,46.01
2022-12-19T20:19:03.327Z,46.00
2022-12-19T20:21:33.202Z,45.56
2022-12-19T20:24:01.731Z,45.85
2022-12-19T20:26:30.259Z,45.87
2022-12-19T20:28:58.694Z,45.92
2022-12-19T20:31:27.698Z,45.48
2022-12-19T20:33:56.683Z,45.90
2022-12-19T20:36:25.610Z,45.50
2022-12-19T20:38:54.074Z,45.48
2022-12-19T20:41:22.844Z,46.04
2022-12-19T20:43:53.016Z,45.89
2022-12-19T20:46:22.442Z,45.69
2022-12-19T20:48:51.342Z,45.94
2022-12-19T20:51:21.018Z,46.08
2022-12-19T20:53:52.811Z,46.28
2022-12-19T20:56:23.269Z,46.13
2022-12-19T20:58:52.073Z,46.50
2022-12-19T21:01:22.452Z,46.28
2022-12-19T21:03:51.222Z,46.22
2022-12-19T21:06:21.132Z,45.97
2022-12-19T21:08:50.400Z,46.32
2022-12-19T21:11:18.880Z,46.06
2022-12-19T21:13:47.832Z,46.19
2022-12-19T21:16:19.127Z,46.39
2022-12-19T21:18:48.181Z,46.06
2022-12-19T21:21:22.819Z,46.34
2022-12-19T21:23:52.585Z,45.86
2022-12-19T21:26:22.762Z,46.59
2022-12-19T21:28:51.796Z,46.15
2022-12-19T21:31:26.557Z,45.73
2022-12-19T21:33:59.681Z,45.57
2022-12-19T21:36:29.905Z,45.74
2022-12-19T21:39:00.160Z,45.79
2022-12-19T21:41:29.368Z,46.06
2022-12-19T21:43:58.370Z,46.19
2022-12-19T21:46:28.795Z,46.13
2022-12-19T21:48:57.910Z,46.93
2022-12-19T21:51:29.398Z,46.51
2022-12-19T21:54:00.712Z,46.50
2022-12-19T21:56:41.394Z,46.58
2022-12-19T21:59:14.983Z,46.21
2022-12-19T22:01:44.385Z,46.08
2022-12-19T22:04:17.757Z,45.73
2022-12-19T22:06:47.499Z,45.95
2022-12-19T22:09:19.254Z,45.94
2022-12-19T22:11:47.936Z,45.32
2022-12-19T22:14:16.825Z,46.24
2022-12-19T22:16:45.581Z,45.85
2022-12-19T22:19:16.358Z,46.13
2022-12-19T22:21:46.558Z,45.94
2022-12-19T22:24:16.463Z,46.04
2022-12-19T22:26:45.091Z,45.98
2022-12-19T22:29:15.726Z,45.73
2022-12-19T22:31:45.812Z,45.92
2022-12-19T22:34:17.303Z,45.32
2022-12-19T22:36:47.500Z,45.47
2022-12-19T22:39:19.712Z,45.48
2022-12-19T22:41:48.456Z,45.23
2022-12-19T22:44:22.156Z,45.29
2022-12-19T22:46:51.612Z,45.38
2022-12-19T22:49:20.209Z,45.15
2022-12-19T22:51:49.201Z,45.19
2022-12-19T22:54:18.696Z,45.10
2022-12-19T22:56:50.297Z,45.02
2022-12-19T22:59:18.763Z,45.45
2022-12-19T23:01:47.340Z,45.28
2022-12-19T23:04:16.556Z,45.81
2022-12-19T23:06:45.344Z,45.48
2022-12-19T23:09:16.158Z,45.29
2022-12-19T23:11:49.038Z,44.99
2022-12-19T23:14:18.857Z,44.98
2022-12-19T23:16:47.839Z,45.21
2022-12-19T23:19:17.551Z,45.22
2022-12-19T23:21:46.329Z,45.44
2022-12-19T23:24:15.133Z,45.63
2022-12-19T23:26:43.644Z,44.83
2022-12-19T23:29:14.221Z,44.79
2022-12-19T23:31:45.373Z,44.56
2022-12-19T23:34:15.490Z,44.53
2022-12-19T23:39:32.928Z,44.63
2022-12-19T23:42:01.304Z,44.50
2022-12-19T23:44:29.947Z,44.85
2022-12-19T23:47:02.960Z,44.78
2022-12-19T23:49:33.484Z,44.55
2022-12-19T23:52:02.018Z,44.15
2022-12-19T23:54:30.573Z,44.54
2022-12-19T23:56:59.131Z,44.20
2022-12-19T23:59:27.637Z,44.82
